createdAt,value
2018-04-14T00:01:27.366Z,20.33
2018-04-14T00:03:56.489Z,19.73
2018-04-14T00:06:25.600Z,19.23
2018-04-14T00:08:54.723Z,19.33
2018-04-14T00:11:23.833Z,19.47
2018-04-14T00:13:52.981Z,19.17
2018-04-14T00:16:22.105Z,20.23
2018-04-14T00:18:51.252Z,17.00
2018-04-14T00:21:20.357Z,17.50
2018-04-14T00:23:49.504Z,20.37
2018-04-14T00:26:18.620Z,17.10
2018-04-14T00:28:47.755Z,18.57
2018-04-14T00:31:16.860Z,19.20
2018-04-14T00:33:45.976Z,20.10
2018-04-14T00:36:15.104Z,20.20
2018-04-14T00:38:44.230Z,21.73
2018-04-14T00:41:13.497Z,21.20
2018-04-14T00:43:42.609Z,21.43
2018-04-14T00:46:11.747Z,21.93
2018-04-14T00:48:40.857Z,21.20
2018-04-14T00:51:10.004Z,21.13
2018-04-14T00:53:45.061Z,22.67
2018-04-14T00:56:14.167Z,20.70
2018-04-14T00:58:43.288Z,21.53
2018-04-14T01:01:12.412Z,21.37
2018-04-14T01:03:41.524Z,22.40
2018-04-14T01:06:10.644Z,22.20
2018-04-14T01:08:39.756Z,21.27
2018-04-14T01:11:08.876Z,23.20
2018-04-14T01:13:38.009Z,19.50
2018-04-14T01:16:07.145Z,17.77
2018-04-14T01:18:36.273Z,20.03
2018-04-14T01:21:05.416Z,20.57
2018-04-14T01:23:34.536Z,21.00
2018-04-14T01:26:03.640Z,19.97
2018-04-14T01:28:32.753Z,20.23
2018-04-14T01:31:01.897Z,20.10
2018-04-14T01:33:31.028Z,19.70
2018-04-14T01:36:00.144Z,20.13
2018-04-14T01:38:29.252Z,20.53
2018-04-14T01:40:58.381Z,21.23
2018-04-14T01:43:27.768Z,20.87
2018-04-14T01:45:57.130Z,20.10
2018-04-14T01:48:26.241Z,19.57
2018-04-14T01:50:55.356Z,20.43
2018-04-14T01:53:24.481Z,20.90
2018-04-14T01:55:53.617Z,20.80
2018-04-14T01:58:22.767Z,20.40
2018-04-14T02:00:51.880Z,21.90
2018-04-14T02:03:20.992Z,23.60
2018-04-14T02:05:50.139Z,24.40
2018-04-14T02:08:19.288Z,24.47
2018-04-14T02:10:48.437Z,23.27
2018-04-14T02:13:17.568Z,23.30
2018-04-14T02:15:46.685Z,26.00
2018-04-14T02:18:15.800Z,24.33
2018-04-14T02:20:44.950Z,23.17
2018-04-14T02:23:14.084Z,20.20
2018-04-14T02:25:43.208Z,21.80
2018-04-14T02:28:12.329Z,20.00
2018-04-14T02:30:41.448Z,20.40
2018-04-14T02:33:10.604Z,20.90
2018-04-14T02:35:39.749Z,20.07
2018-04-14T02:38:08.858Z,20.20
2018-04-14T02:40:37.992Z,21.37
2018-04-14T02:43:07.120Z,20.37
2018-04-14T02:45:36.244Z,19.43
2018-04-14T02:48:05.376Z,18.87
2018-04-14T02:50:34.490Z,18.67
2018-04-14T02:53:03.636Z,17.73
2018-04-14T02:55:32.744Z,19.20
2018-04-14T02:58:01.859Z,21.27
2018-04-14T03:00:30.984Z,19.43
2018-04-14T03:03:00.116Z,18.67
2018-04-14T03:05:29.224Z,18.50
2018-04-14T03:07:58.361Z,19.80
2018-04-14T03:10:27.472Z,20.00
2018-04-14T03:12:56.601Z,19.30
2018-04-14T03:15:25.742Z,18.00
2018-04-14T03:17:54.875Z,19.10
2018-04-14T03:20:24.061Z,19.00
2018-04-14T03:22:53.163Z,18.03
2018-04-14T03:25:22.293Z,18.20
2018-04-14T03:27:51.420Z,19.77
2018-04-14T03:30:20.548Z,19.40
2018-04-14T03:32:49.699Z,20.00
2018-04-14T03:35:18.831Z,20.57
2018-04-14T03:37:47.955Z,19.30
2018-04-14T03:40:17.085Z,20.00
2018-04-14T03:42:46.200Z,19.30
2018-04-14T03:45:15.314Z,19.60
2018-04-14T03:47:44.600Z,20.03
2018-04-14T03:50:13.741Z,22.10
2018-04-14T03:52:42.873Z,21.57
2018-04-14T03:55:12.004Z,21.83
2018-04-14T03:57:41.143Z,21.77
2018-04-14T04:00:10.327Z,21.33
2018-04-14T04:02:39.436Z,21.50
2018-04-14T04:05:08.545Z,21.67
2018-04-14T04:07:37.698Z,22.70
2018-04-14T04:10:06.829Z,21.43
2018-04-14T04:12:35.936Z,23.03
2018-04-14T04:15:05.057Z,28.50
2018-04-14T04:17:34.191Z,35.80
2018-04-14T04:20:09.264Z,34.07
2018-04-14T04:22:44.344Z,38.57
2018-04-14T04:25:19.376Z,32.97
2018-04-14T04:27:48.520Z,33.27
2018-04-14T04:30:17.652Z,33.47
2018-04-14T04:32:46.768Z,33.07
2018-04-14T04:35:15.883Z,33.17
2018-04-14T04:37:44.990Z,33.17
2018-04-14T04:40:14.109Z,33.40
2018-04-14T04:42:43.244Z,37.00
2018-04-14T04:45:12.368Z,40.03
2018-04-14T04:47:41.487Z,39.27
2018-04-14T04:50:10.757Z,36.00
2018-04-14T04:52:39.905Z,34.93
2018-04-14T04:55:09.044Z,34.20
2018-04-14T04:57:38.166Z,32.73
2018-04-14T05:00:07.276Z,31.73
2018-04-14T05:02:36.391Z,33.90
2018-04-14T05:05:05.508Z,34.30
2018-04-14T05:07:34.634Z,33.07
2018-04-14T05:10:03.748Z,35.40
2018-04-14T05:12:32.866Z,36.20
2018-04-14T05:15:01.989Z,39.13
2018-04-14T05:17:31.136Z,37.53
2018-04-14T05:20:00.240Z,39.57
2018-04-14T05:22:29.344Z,33.63
2018-04-14T05:24:58.480Z,27.60
2018-04-14T05:27:27.603Z,24.87
2018-04-14T05:29:56.747Z,21.97
2018-04-14T05:32:25.855Z,20.70
2018-04-14T05:34:55.032Z,21.07
2018-04-14T05:37:24.208Z,21.87
2018-04-14T05:39:53.323Z,21.73
2018-04-14T05:42:22.457Z,21.63
2018-04-14T05:44:51.576Z,21.43
2018-04-14T05:47:20.724Z,22.30
2018-04-14T05:49:49.860Z,22.27
2018-04-14T05:52:18.993Z,21.73
2018-04-14T05:54:48.104Z,21.57
2018-04-14T05:57:17.228Z,20.77
2018-04-14T05:59:46.344Z,19.63
2018-04-14T06:02:15.459Z,19.70
2018-04-14T06:04:44.596Z,18.93
2018-04-14T06:07:13.732Z,18.30
2018-04-14T06:09:42.844Z,18.90
2018-04-14T06:12:11.968Z,17.90
2018-04-14T06:14:41.112Z,17.83
2018-04-14T06:17:10.248Z,18.07
2018-04-14T06:19:40.069Z,16.10
2018-04-14T06:22:09.229Z,16.40
2018-04-14T06:24:38.340Z,17.00
2018-04-14T06:27:07.494Z,17.03
2018-04-14T06:29:36.598Z,17.77
2018-04-14T06:32:05.724Z,16.83
2018-04-14T06:34:34.865Z,15.80
2018-04-14T06:37:04.008Z,16.57
2018-04-14T06:39:33.171Z,18.73
2018-04-14T06:42:02.289Z,18.60
2018-04-14T06:44:31.443Z,18.00
2018-04-14T06:47:00.581Z,18.90
2018-04-14T06:49:29.724Z,18.93
2018-04-14T06:51:58.879Z,18.57
2018-04-14T06:54:28.004Z,18.43
2018-04-14T06:56:57.154Z,18.47
2018-04-14T06:59:26.278Z,17.70
2018-04-14T07:01:55.409Z,18.20
2018-04-14T07:04:24.565Z,17.53
2018-04-14T07:06:53.684Z,18.23
2018-04-14T07:09:22.800Z,17.37
2018-04-14T07:11:51.945Z,19.80
2018-04-14T07:14:21.095Z,18.77
2018-04-14T07:16:50.199Z,19.10
2018-04-14T07:19:19.347Z,18.57
2018-04-14T07:21:48.497Z,19.20
2018-04-14T07:24:18.490Z,18.07
2018-04-14T07:26:47.660Z,17.57
2018-04-14T07:29:16.803Z,17.33
2018-04-14T07:31:45.940Z,17.70
2018-04-14T07:34:15.057Z,17.77
2018-04-14T07:36:44.177Z,17.27
2018-04-14T07:39:13.296Z,17.73
2018-04-14T07:41:42.446Z,18.70
2018-04-14T07:44:11.548Z,17.53
2018-04-14T07:46:40.676Z,17.33
2018-04-14T07:49:09.795Z,18.00
2018-04-14T07:51:38.955Z,18.60
2018-04-14T07:54:08.039Z,17.63
2018-04-14T07:56:37.175Z,17.50
2018-04-14T07:59:06.328Z,16.97
2018-04-14T08:01:35.461Z,17.30
2018-04-14T08:04:04.609Z,17.77
2018-04-14T08:06:33.888Z,17.30
2018-04-14T08:09:03.269Z,18.47
2018-04-14T08:11:32.403Z,16.97
2018-04-14T08:14:01.537Z,17.30
2018-04-14T08:16:30.682Z,17.73
2018-04-14T08:18:59.807Z,17.77
2018-04-14T08:21:29.055Z,17.10
2018-04-14T08:23:58.217Z,15.97
2018-04-14T08:26:27.371Z,14.50
2018-04-14T08:28:56.565Z,16.13
2018-04-14T08:31:25.700Z,14.23
2018-04-14T08:33:54.853Z,14.17
2018-04-14T08:36:23.992Z,13.17
2018-04-14T08:38:53.108Z,12.37
2018-04-14T08:41:22.222Z,11.80
2018-04-14T08:43:51.355Z,10.77
2018-04-14T08:46:20.496Z,9.63
2018-04-14T08:48:49.635Z,10.37
2018-04-14T08:51:18.751Z,12.17
2018-04-14T08:53:47.895Z,10.87
2018-04-14T08:56:17.036Z,10.07
2018-04-14T08:58:46.176Z,11.53
2018-04-14T09:01:15.315Z,10.97
2018-04-14T09:03:44.432Z,11.37
2018-04-14T09:06:13.573Z,10.53
2018-04-14T09:08:42.746Z,10.47
2018-04-14T09:11:11.920Z,9.97
2018-04-14T09:13:41.053Z,8.40
2018-04-14T09:16:10.233Z,8.70
2018-04-14T09:18:39.364Z,8.47
2018-04-14T09:21:08.483Z,9.27
2018-04-14T09:23:37.622Z,7.57
2018-04-14T09:26:06.727Z,8.40
2018-04-14T09:28:35.860Z,8.50
2018-04-14T09:31:05.060Z,8.20
2018-04-14T09:33:34.191Z,7.10
2018-04-14T09:36:03.320Z,7.50
2018-04-14T09:38:32.436Z,7.20
2018-04-14T09:41:01.581Z,7.40
2018-04-14T09:43:30.724Z,7.40
2018-04-14T09:45:59.863Z,7.10
2018-04-14T09:48:28.980Z,6.83
2018-04-14T09:50:58.110Z,6.40
2018-04-14T09:53:27.244Z,6.30
2018-04-14T09:55:56.696Z,6.93
2018-04-14T09:58:25.869Z,6.53
2018-04-14T10:01:00.873Z,5.80
2018-04-14T10:03:30.029Z,6.00
2018-04-14T10:05:59.161Z,5.93
2018-04-14T10:08:28.305Z,5.60
2018-04-14T10:10:57.440Z,5.33
2018-04-14T10:13:26.552Z,5.73
2018-04-14T10:15:55.703Z,5.87
2018-04-14T10:18:24.849Z,6.03
2018-04-14T10:20:54.057Z,5.70
2018-04-14T10:23:23.196Z,5.70
2018-04-14T10:25:52.325Z,6.00
2018-04-14T10:28:21.433Z,5.40
2018-04-14T10:30:50.551Z,5.33
2018-04-14T10:33:19.688Z,5.60
2018-04-14T10:35:48.832Z,5.80
2018-04-14T10:38:17.935Z,5.67
2018-04-14T10:40:47.064Z,5.27
2018-04-14T10:43:16.186Z,4.90
2018-04-14T10:45:45.291Z,4.70
2018-04-14T10:48:14.427Z,4.50
2018-04-14T10:50:43.535Z,4.33
2018-04-14T10:53:12.682Z,4.50
2018-04-14T10:55:41.832Z,4.57
2018-04-14T10:58:10.940Z,4.33
2018-04-14T11:00:40.056Z,4.73
2018-04-14T11:03:09.196Z,5.10
2018-04-14T11:05:38.379Z,4.47
2018-04-14T11:08:07.577Z,4.57
2018-04-14T11:10:36.711Z,4.70
2018-04-14T11:13:05.856Z,5.10
2018-04-14T11:15:34.987Z,4.73
2018-04-14T11:18:04.094Z,4.40
2018-04-14T11:20:33.245Z,4.50
2018-04-14T11:23:02.315Z,4.87
2018-04-14T11:25:31.431Z,5.20
2018-04-14T11:28:00.548Z,5.10
2018-04-14T11:30:29.673Z,5.13
2018-04-14T11:32:58.809Z,5.20
2018-04-14T11:35:27.920Z,5.07
2018-04-14T11:37:57.060Z,5.17
2018-04-14T11:40:26.179Z,4.97
2018-04-14T11:42:55.283Z,4.83
2018-04-14T11:45:24.425Z,4.77
2018-04-14T11:47:53.544Z,4.87
2018-04-14T11:50:22.647Z,5.20
2018-04-14T11:52:51.765Z,5.33
2018-04-14T11:55:20.882Z,5.77
2018-04-14T11:57:49.988Z,5.47
2018-04-14T12:00:19.124Z,4.67
2018-04-14T12:02:48.240Z,4.80
2018-04-14T12:05:17.396Z,4.20
2018-04-14T12:07:46.527Z,4.00
2018-04-14T12:10:15.647Z,4.20
2018-04-14T12:12:44.785Z,4.10
2018-04-14T12:15:13.913Z,4.07
2018-04-14T12:17:43.192Z,4.13
2018-04-14T12:20:12.339Z,4.10
2018-04-14T12:22:41.447Z,4.23
2018-04-14T12:25:10.549Z,3.93
2018-04-14T12:27:39.719Z,3.70
2018-04-14T12:30:08.825Z,4.07
2018-04-14T12:32:37.950Z,4.10
2018-04-14T12:35:07.079Z,3.87
2018-04-14T12:37:36.215Z,4.00
2018-04-14T12:40:05.355Z,4.40
2018-04-14T12:42:34.508Z,3.60
2018-04-14T12:45:03.635Z,4.10
2018-04-14T12:47:32.749Z,3.60
2018-04-14T12:50:01.872Z,3.60
2018-04-14T12:52:31.012Z,3.87
2018-04-14T12:55:00.121Z,3.50
2018-04-14T12:57:29.247Z,4.07
2018-04-14T12:59:58.380Z,4.07
2018-04-14T13:02:27.517Z,4.17
2018-04-14T13:04:56.635Z,4.20
2018-04-14T13:07:25.773Z,3.97
2018-04-14T13:09:54.888Z,4.33
2018-04-14T13:12:24.030Z,4.10
2018-04-14T13:14:53.140Z,3.97
2018-04-14T13:17:22.298Z,4.20
2018-04-14T13:19:51.401Z,3.80
2018-04-14T13:22:20.539Z,3.60
2018-04-14T13:24:49.701Z,3.93
2018-04-14T13:27:18.812Z,3.90
2018-04-14T13:29:47.943Z,4.00
2018-04-14T13:32:17.133Z,3.97
2018-04-14T13:34:46.457Z,3.90
2018-04-14T13:37:15.624Z,3.93
2018-04-14T13:39:44.743Z,4.50
2018-04-14T13:42:13.879Z,4.60
2018-04-14T13:44:42.984Z,5.10
2018-04-14T13:47:12.127Z,4.30
2018-04-14T13:49:41.323Z,3.90
2018-04-14T13:52:10.507Z,4.50
2018-04-14T13:54:39.613Z,4.23
2018-04-14T13:57:08.743Z,4.53
2018-04-14T13:59:38.048Z,4.50
2018-04-14T14:02:07.152Z,4.60
2018-04-14T14:04:36.308Z,4.43
2018-04-14T14:07:05.412Z,4.83
2018-04-14T14:09:34.548Z,5.47
2018-04-14T14:12:03.692Z,5.20
2018-04-14T14:14:32.844Z,4.60
2018-04-14T14:17:01.988Z,5.03
2018-04-14T14:19:31.117Z,5.30
2018-04-14T14:22:00.256Z,6.13
2018-04-14T14:24:29.406Z,6.33
2018-04-14T14:26:58.516Z,6.47
2018-04-14T14:29:27.627Z,7.50
2018-04-14T14:31:56.766Z,8.47
2018-04-14T14:34:25.952Z,8.43
2018-04-14T14:36:55.105Z,8.87
2018-04-14T14:39:24.246Z,8.70
2018-04-14T14:41:53.368Z,8.20
2018-04-14T14:44:22.498Z,7.73
2018-04-14T14:46:51.599Z,7.23
2018-04-14T14:49:20.745Z,7.30
2018-04-14T14:51:49.873Z,6.47
2018-04-14T14:54:18.981Z,5.60
2018-04-14T14:56:48.206Z,6.20
2018-04-14T14:59:17.262Z,6.00
2018-04-14T15:01:46.656Z,6.10
2018-04-14T15:04:15.813Z,5.27
2018-04-14T15:06:44.961Z,6.10
2018-04-14T15:09:14.095Z,7.27
2018-04-14T15:11:43.220Z,6.23
2018-04-14T15:14:12.360Z,5.73
2018-04-14T15:16:41.491Z,5.47
2018-04-14T15:19:10.602Z,5.50
2018-04-14T15:21:39.737Z,5.33
2018-04-14T15:24:08.875Z,5.33
2018-04-14T15:26:38.007Z,6.37
2018-04-14T15:29:07.144Z,6.50
2018-04-14T15:31:36.254Z,7.20
2018-04-14T15:34:05.396Z,7.80
2018-04-14T15:36:34.527Z,7.93
2018-04-14T15:39:03.640Z,7.00
2018-04-14T15:41:32.760Z,6.87
2018-04-14T15:44:01.897Z,6.97
2018-04-14T15:46:31.065Z,6.50
2018-04-14T15:49:00.253Z,7.90
2018-04-14T15:51:29.361Z,8.80
2018-04-14T15:53:58.472Z,8.90
2018-04-14T15:56:27.584Z,8.90
2018-04-14T15:58:56.700Z,8.90
2018-04-14T16:01:25.840Z,8.40
2018-04-14T16:03:54.940Z,8.57
2018-04-14T16:06:24.080Z,7.87
2018-04-14T16:08:53.223Z,7.17
2018-04-14T16:11:22.340Z,7.37
2018-04-14T16:13:51.485Z,8.57
2018-04-14T16:16:20.628Z,7.47
2018-04-14T16:18:49.790Z,9.00
2018-04-14T16:21:18.912Z,8.53
2018-04-14T16:23:48.064Z,10.53
2018-04-14T16:26:17.175Z,8.40
2018-04-14T16:28:46.296Z,9.43
2018-04-14T16:31:15.443Z,8.87
2018-04-14T16:33:44.562Z,8.97
2018-04-14T16:36:13.682Z,8.50
2018-04-14T16:38:42.791Z,9.17
2018-04-14T16:41:11.974Z,9.23
2018-04-14T16:43:41.076Z,10.80
2018-04-14T16:46:10.197Z,16.53
2018-04-14T16:48:39.341Z,9.30
2018-04-14T16:51:08.492Z,9.20
2018-04-14T16:53:37.607Z,10.50
2018-04-14T16:56:06.744Z,9.03
2018-04-14T16:58:35.872Z,10.23
2018-04-14T17:01:04.988Z,8.10
2018-04-14T17:03:34.119Z,8.23
2018-04-14T17:06:03.266Z,8.67
2018-04-14T17:08:32.416Z,11.73
2018-04-14T17:11:01.586Z,10.00
2018-04-14T17:13:30.729Z,8.13
2018-04-14T17:15:59.837Z,8.33
2018-04-14T17:18:28.968Z,8.70
2018-04-14T17:20:58.114Z,9.07
2018-04-14T17:23:27.249Z,9.80
2018-04-14T17:25:56.379Z,9.60
2018-04-14T17:28:25.498Z,11.77
2018-04-14T17:30:54.629Z,14.90
2018-04-14T17:33:23.768Z,8.20
2018-04-14T17:35:52.895Z,8.63
2018-04-14T17:38:22.042Z,8.70
2018-04-14T17:40:51.159Z,8.80
2018-04-14T17:43:20.307Z,9.70
2018-04-14T17:45:49.445Z,8.67
2018-04-14T17:48:18.560Z,8.60
2018-04-14T17:50:47.676Z,8.70
2018-04-14T17:53:16.801Z,8.67
2018-04-14T17:55:45.908Z,8.47
2018-04-14T17:58:15.037Z,7.93
2018-04-14T18:00:44.153Z,8.77
2018-04-14T18:03:13.260Z,7.60
2018-04-14T18:05:42.397Z,8.20
2018-04-14T18:08:11.565Z,8.37
2018-04-14T18:10:40.680Z,8.90
2018-04-14T18:13:09.792Z,8.60
2018-04-14T18:15:38.937Z,8.87
2018-04-14T18:18:08.063Z,8.17
2018-04-14T18:20:37.189Z,8.30
2018-04-14T18:23:06.324Z,8.40
2018-04-14T18:25:35.447Z,8.80
2018-04-14T18:28:04.600Z,8.50
2018-04-14T18:30:33.738Z,9.03
2018-04-14T18:33:02.880Z,8.60
2018-04-14T18:35:32.006Z,8.80
2018-04-14T18:38:01.125Z,9.20
2018-04-14T18:40:30.252Z,8.97
2018-04-14T18:42:59.382Z,9.10
2018-04-14T18:45:28.514Z,9.30
2018-04-14T18:47:57.619Z,9.30
2018-04-14T18:50:26.736Z,10.10
2018-04-14T18:52:55.852Z,10.13
2018-04-14T18:55:25.006Z,9.77
2018-04-14T18:57:54.149Z,10.00
2018-04-14T19:00:23.293Z,10.50
2018-04-14T19:02:52.408Z,10.37
2018-04-14T19:05:21.519Z,10.23
2018-04-14T19:07:50.655Z,10.27
2018-04-14T19:10:19.854Z,10.13
2018-04-14T19:12:48.967Z,10.13
2018-04-14T19:15:18.101Z,10.53
2018-04-14T19:17:47.225Z,9.90
2018-04-14T19:20:16.369Z,10.07
2018-04-14T19:22:45.489Z,12.37
2018-04-14T19:25:14.627Z,13.80
2018-04-14T19:27:43.771Z,16.37
2018-04-14T19:30:12.891Z,17.20
2018-04-14T19:32:42.003Z,15.93
2018-04-14T19:35:11.121Z,14.97
2018-04-14T19:37:40.277Z,14.67
2018-04-14T19:40:09.425Z,14.70
2018-04-14T19:42:38.564Z,15.20
2018-04-14T19:45:07.684Z,13.57
2018-04-14T19:47:36.856Z,13.00
2018-04-14T19:50:05.991Z,13.10
2018-04-14T19:52:35.113Z,12.90
2018-04-14T19:55:04.225Z,13.77
2018-04-14T19:57:33.372Z,13.90
2018-04-14T20:00:02.486Z,21.10
2018-04-14T20:02:31.635Z,13.83
2018-04-14T20:05:00.766Z,13.77
2018-04-14T20:07:29.879Z,16.03
2018-04-14T20:09:59.024Z,13.50
2018-04-14T20:12:28.143Z,12.90
2018-04-14T20:14:57.243Z,20.73
2018-04-14T20:17:26.376Z,18.60
2018-04-14T20:19:55.579Z,18.17
2018-04-14T20:22:24.688Z,16.83
2018-04-14T20:24:53.816Z,15.60
2018-04-14T20:27:22.931Z,16.00
2018-04-14T20:29:52.048Z,14.70
2018-04-14T20:32:21.169Z,15.60
2018-04-14T20:34:50.285Z,15.50
2018-04-14T20:37:19.434Z,17.00
2018-04-14T20:39:48.565Z,16.37
2018-04-14T20:42:17.697Z,19.17
2018-04-14T20:44:46.812Z,26.00
2018-04-14T20:47:15.974Z,35.33
2018-04-14T20:49:45.116Z,18.77
2018-04-14T20:52:14.252Z,15.00
2018-04-14T20:54:43.365Z,17.07
2018-04-14T20:57:12.515Z,18.30
2018-04-14T20:59:41.655Z,17.33
2018-04-14T21:02:10.799Z,15.57
2018-04-14T21:04:39.949Z,14.80
2018-04-14T21:07:09.108Z,15.20
2018-04-14T21:09:38.209Z,15.17
2018-04-14T21:12:07.324Z,17.03
2018-04-14T21:14:36.472Z,15.50
2018-04-14T21:17:05.596Z,17.47
2018-04-14T21:19:34.720Z,16.03
2018-04-14T21:22:03.875Z,16.40
2018-04-14T21:24:33.010Z,15.40
2018-04-14T21:27:02.161Z,15.63
2018-04-14T21:29:31.274Z,14.47
2018-04-14T21:32:00.424Z,13.73
2018-04-14T21:34:29.535Z,13.50
2018-04-14T21:36:58.688Z,16.50
2018-04-14T21:39:27.802Z,16.70
2018-04-14T21:41:56.937Z,15.93
2018-04-14T21:44:26.061Z,14.63
2018-04-14T21:46:55.176Z,14.63
2018-04-14T21:49:24.303Z,14.13
2018-04-14T21:51:53.440Z,14.47
2018-04-14T21:54:22.544Z,15.43
2018-04-14T21:56:51.691Z,14.20
2018-04-14T21:59:20.820Z,15.20
2018-04-14T22:01:49.963Z,13.97
2018-04-14T22:04:19.083Z,13.57
2018-04-14T22:06:48.204Z,14.47
2018-04-14T22:09:17.363Z,14.77
2018-04-14T22:11:46.485Z,14.90
2018-04-14T22:14:21.516Z,14.93
2018-04-14T22:16:50.631Z,14.20
2018-04-14T22:19:19.778Z,14.57
2018-04-14T22:21:48.922Z,13.70
2018-04-14T22:24:18.062Z,14.77
2018-04-14T22:26:47.384Z,14.07
2018-04-14T22:29:16.519Z,13.47
2018-04-14T22:31:45.631Z,14.17
2018-04-14T22:34:14.760Z,14.37
2018-04-14T22:36:43.900Z,14.20
2018-04-14T22:39:13.020Z,14.20
2018-04-14T22:41:42.162Z,14.33
2018-04-14T22:44:11.349Z,14.00
2018-04-14T22:46:40.472Z,14.00
2018-04-14T22:49:09.601Z,14.03
2018-04-14T22:51:38.738Z,13.23
2018-04-14T22:54:07.883Z,13.60
2018-04-14T22:56:36.992Z,13.87
2018-04-14T22:59:06.103Z,13.70
2018-04-14T23:01:35.229Z,13.23
2018-04-14T23:04:04.382Z,14.50
2018-04-14T23:06:33.521Z,13.53
2018-04-14T23:09:02.666Z,13.07
2018-04-14T23:11:31.810Z,13.23
2018-04-14T23:14:00.949Z,13.40
2018-04-14T23:16:30.116Z,14.20
2018-04-14T23:18:59.250Z,13.37
2018-04-14T23:21:28.360Z,12.97
2018-04-14T23:23:57.474Z,14.90
2018-04-14T23:26:26.589Z,13.33
2018-04-14T23:28:55.737Z,13.70
2018-04-14T23:31:24.868Z,13.67
2018-04-14T23:33:53.982Z,13.43
2018-04-14T23:36:23.375Z,13.27
2018-04-14T23:38:52.515Z,14.70
2018-04-14T23:41:21.672Z,13.60
2018-04-14T23:43:50.799Z,14.70
2018-04-14T23:46:19.928Z,14.20
2018-04-14T23:48:49.081Z,14.03
2018-04-14T23:51:18.252Z,14.20
2018-04-14T23:53:47.372Z,15.10
2018-04-14T23:56:16.487Z,14.40
2018-04-14T23:58:45.604Z,15.30
